Map

Track Data

SID SEASON NUMBER BASIN SUBBASIN NAME ISO_TIME NATURE LAT LON WMO_WIND WMO_PRES WMO_AGENCY TRACK_TYPE DIST2LAND LANDFALL IFLAG USA_AGENCY USA_ATCF_ID USA_LAT USA_LON USA_RECORD USA_STATUS USA_WIND USA_PRES USA_SSHS USA_R34_NE USA_R34_SE USA_R34_SW USA_R34_NW USA_R50_NE USA_R50_SE USA_R50_SW USA_R50_NW USA_R64_NE USA_R64_SE USA_R64_SW USA_R64_NW USA_POCI USA_ROCI USA_RMW USA_EYE TOKYO_LAT TOKYO_LON TOKYO_GRADE TOKYO_WIND TOKYO_PRES TOKYO_R50_DIR TOKYO_R50_LONG TOKYO_R50_SHORT TOKYO_R30_DIR TOKYO_R30_LONG TOKYO_R30_SHORT TOKYO_LAND CMA_LAT CMA_LON CMA_CAT CMA_WIND CMA_PRES HKO_LAT HKO_LON HKO_CAT HKO_WIND HKO_PRES NEWDELHI_LAT NEWDELHI_LON NEWDELHI_GRADE NEWDELHI_WIND NEWDELHI_PRES NEWDELHI_CI NEWDELHI_DP NEWDELHI_POCI REUNION_LAT REUNION_LON REUNION_TYPE REUNION_WIND REUNION_PRES REUNION_TNUM REUNION_CI REUNION_RMW REUNION_R34_NE REUNION_R34_SE REUNION_R34_SW REUNION_R34_NW REUNION_R50_NE REUNION_R50_SE REUNION_R50_SW REUNION_R50_NW REUNION_R64_NE REUNION_R64_SE REUNION_R64_SW REUNION_R64_NW BOM_LAT BOM_LON BOM_TYPE BOM_WIND BOM_PRES BOM_TNUM BOM_CI BOM_RMW BOM_R34_NE BOM_R34_SE BOM_R34_SW BOM_R34_NW BOM_R50_NE BOM_R50_SE BOM_R50_SW BOM_R50_NW BOM_R64_NE BOM_R64_SE BOM_R64_SW BOM_R64_NW BOM_ROCI BOM_POCI BOM_EYE BOM_POS_METHOD BOM_PRES_METHOD NADI_LAT NADI_LON NADI_CAT NADI_WIND NADI_PRES WELLINGTON_LAT WELLINGTON_LON WELLINGTON_WIND WELLINGTON_PRES DS824_LAT DS824_LON DS824_STAGE DS824_WIND DS824_PRES TD9636_LAT TD9636_LON TD9636_STAGE TD9636_WIND TD9636_PRES TD9635_LAT TD9635_LON TD9635_WIND TD9635_PRES TD9635_ROCI NEUMANN_LAT NEUMANN_LON NEUMANN_CLASS NEUMANN_WIND NEUMANN_PRES MLC_LAT MLC_LON MLC_CLASS MLC_WIND MLC_PRES USA_GUST BOM_GUST BOM_GUST_PER REUNION_GUST REUNION_GUST_PER USA_SEAHGT USA_SEARAD_NE USA_SEARAD_SE USA_SEARAD_SW USA_SEARAD_NW STORM_SPEED STORM_DIR
1993064N03174 1993 20 WP MM IRMA 1993-03-05 00:00:00 NR 3.10000 173.700 main 1925 1892 O_____________ jtwc_wp WP021993 3.10000 173.700 15 -1 9 276
1993064N03174 1993 20 WP MM IRMA 1993-03-05 03:00:00 NR 3.15004 173.250 main 1900 1861 P_____________ WP021993 3.15004 173.250 15 -1 9 276
1993064N03174 1993 20 WP MM IRMA 1993-03-05 06:00:00 NR 3.20000 172.800 main 1861 1829 O_____________ jtwc_wp WP021993 3.20000 172.800 15 -1 9 276
1993064N03174 1993 20 WP MM IRMA 1993-03-05 09:00:00 NR 3.24998 172.350 main 1829 1799 P_____________ WP021993 3.24998 172.350 15 -1 9 276
1993064N03174 1993 20 WP MM IRMA 1993-03-05 12:00:00 NR 3.30000 171.900 main 1799 1769 O_____________ jtwc_wp WP021993 3.30000 171.900 15 -1 9 276
1993064N03174 1993 20 WP MM IRMA 1993-03-05 15:00:00 NR 3.34999 171.443 main 1761 1740 P_____________ WP021993 3.34999 171.443 15 -1 9 276
1993064N03174 1993 20 WP MM IRMA 1993-03-05 18:00:00 NR 3.40000 171.000 main 1740 1712 O_____________ jtwc_wp WP021993 3.40000 171.000 15 -1 9 277
1993064N03174 1993 20 WP MM IRMA 1993-03-05 21:00:00 NR 3.44997 170.592 main 1712 1693 P_____________ WP021993 3.44997 170.592 15 -1 8 277
1993064N03174 1993 20 WP MM IRMA 1993-03-06 00:00:00 NR 3.50000 170.200 main 1693 1672 O_____________ jtwc_wp WP021993 3.50000 170.200 15 -1 8 278
1993064N03174 1993 20 WP MM IRMA 1993-03-06 03:00:00 NR 3.55750 169.785 main 1675 1649 P_____________ WP021993 3.55750 169.785 17 -1 8 277
1993064N03174 1993 20 WP MM IRMA 1993-03-06 06:00:00 NR 3.60000 169.400 main 1649 1630 O_____________ jtwc_wp WP021993 3.60000 169.400 20 -1 7 273
1993064N03174 1993 20 WP MM IRMA 1993-03-06 09:00:00 NR 3.59997 169.085 main 1630 1611 P_____________ WP021993 3.59997 169.085 20 -1 6 270
1993064N03174 1993 20 WP MM IRMA 1993-03-06 12:00:00 NR 3.60000 168.800 main 1611 1593 O_____________ jtwc_wp WP021993 3.60000 168.800 20 -1 6 275
1993064N03174 1993 20 WP MM IRMA 1993-03-06 15:00:00 NR 3.64999 168.500 main 1593 1585 P_____________ WP021993 3.64999 168.500 20 -1 6 279
1993064N03174 1993 20 WP MM IRMA 1993-03-06 18:00:00 NR 3.70000 168.200 main 1585 1568 O_____________ jtwc_wp WP021993 3.70000 168.200 20 -1 6 275
1993064N03174 1993 20 WP MM IRMA 1993-03-06 21:00:00 NR 3.70750 167.893 main 1568 1551 P_____________ WP021993 3.70750 167.893 20 -1 6 270
1993064N03174 1993 20 WP MM IRMA 1993-03-07 00:00:00 NR 3.70000 167.600 main 1551 1535 O_____________ jtwc_wp WP021993 3.70000 167.600 20 -1 6 268
1993064N03174 1993 20 WP MM IRMA 1993-03-07 03:00:00 NR 3.69249 167.335 main 1535 1525 P_____________ WP021993 3.69249 167.335 20 -1 5 270
1993064N03174 1993 20 WP MM IRMA 1993-03-07 06:00:00 NR 3.70000 167.100 main 1525 1515 O_____________ jtwc_wp WP021993 3.70000 167.100 20 -1 4 276
1993064N03174 1993 20 WP MM IRMA 1993-03-07 09:00:00 NR 3.74249 166.893 main 1515 1515 P_____________ WP021993 3.74249 166.893 20 -1 4 284
1993064N03174 1993 20 WP MM IRMA 1993-03-07 12:00:00 NR 3.80000 166.700 main 1515 1506 O_____________ jtwc_wp WP021993 3.80000 166.700 20 -1 4 285
1993064N03174 1993 20 WP MM IRMA 1993-03-07 15:00:00 NR 3.85000 166.493 main 1516 1507 P_____________ WP021993 3.85000 166.493 20 -1 4 284
1993064N03174 1993 20 WP MM IRMA 1993-03-07 18:00:00 NR 3.90000 166.300 main 1507 1498 O_____________ jtwc_wp WP021993 3.90000 166.300 20 -1 4 285
1993064N03174 1993 20 WP MM IRMA 1993-03-07 21:00:00 NR 3.94250 166.135 main 1498 1498 P_____________ WP021993 3.94250 166.135 22 -1 3 289
1993064N03174 1993 20 WP MM IRMA 1993-03-08 00:00:00 NR 4.00000 166.000 main 1504 1500 O_____________ jtwc_wp WP021993 4.00000 166.000 25 -1 3 303
1993064N03174 1993 20 WP MM IRMA 1993-03-08 03:00:00 NR 4.09249 165.900 main 1510 1510 P_____________ WP021993 4.09249 165.900 25 -1 3 315
1993064N03174 1993 20 WP MM IRMA 1993-03-08 06:00:00 NR 4.20000 165.800 main 1517 1513 O_____________ jtwc_wp WP021993 4.20000 165.800 25 -1 3 311
1993064N03174 1993 20 WP MM IRMA 1993-03-08 09:00:00 NR 4.30000 165.658 main 1523 1519 P_____________ WP021993 4.30000 165.658 25 -1 4 304
1993064N03174 1993 20 WP MM IRMA 1993-03-08 12:00:00 NR 4.40000 165.500 main 1526 1522 O_____________ jtwc_wp WP021993 4.40000 165.500 25 -1 4 302
1993064N03174 1993 20 WP MM IRMA 1993-03-08 15:00:00 NR 4.49250 165.350 main 1529 1529 P_____________ WP021993 4.49250 165.350 25 -1 4 304
1993064N03174 1993 20 WP MM IRMA 1993-03-08 18:00:00 NR 4.60000 165.200 main 1536 1532 O_____________ jtwc_wp WP021993 4.60000 165.200 25 -1 4 310
1993064N03174 1993 20 WP MM IRMA 1993-03-08 21:00:00 NR 4.75000 165.043 main 1550 1550 P_____________ WP021993 4.75000 165.043 25 -1 6 58
1993064N03174 1993 20 WP MM IRMA 1993-03-09 00:00:00 TS 4.92000 165.720 main 1586 1586 O_O___________ jtwc_wp WP021993 4.90000 164.900 25 -1 5.00000 169.000 1 23 1006 10 75
1993064N03174 1993 20 WP MM IRMA 1993-03-09 03:00:00 TS 5.01168 166.033 main 1608 1608 P_P___________ WP021993 5.01499 164.800 25 -1 5.00508 168.500 1 23 1005 4 71
1993064N03174 1993 20 WP MM IRMA 1993-03-09 06:00:00 TS 5.05714 166.114 main 1623 1619 O_O___________ jtwc_wp WP021993 5.10000 164.700 25 -1 5.00000 168.000 1 23 1004 1 0
1993064N03174 1993 20 WP MM IRMA 1993-03-09 09:00:00 TS 5.07123 166.029 main 1619 1607 P_P___________ WP021993 5.15750 164.557 25 -1 4.98496 167.500 1 26 1003 5 274
1993064N03174 1993 20 WP MM IRMA 1993-03-09 12:00:00 TS 5.08889 165.633 1004 tokyo main 1603 1593 OOO___________ jtwc_wp WP021993 5.20000 164.400 25 -1 5.00000 165.100 2 1004 0 0 0 5.00000 167.000 1 29 1002 7 275
1993064N03174 1993 20 WP MM IRMA 1993-03-09 15:00:00 TS 5.13799 165.288 main 1593 1589 PPP___________ WP021993 5.25750 164.243 27 -1 4.99000 164.952 2 1004 0 0 5.09246 166.500 1 29 1002 7 278
1993064N03174 1993 20 WP MM IRMA 1993-03-09 18:00:00 TS 5.18182 164.982 1004 tokyo main 1593 1581 OOO___________ jtwc_wp WP021993 5.30000 164.100 30 -1 5.00000 164.800 2 1004 0 0 0 5.20000 166.000 1 29 1002 6 276
1993064N03174 1993 20 WP MM IRMA 1993-03-09 21:00:00 TS 5.20001 164.699 main 1581 1572 PPP___________ WP021993 5.30749 163.993 30 -1 5.04250 164.643 2 1004 0 0 5.25003 165.462 1 29 1002 5 276
1993064N03174 1993 20 WP MM IRMA 1993-03-10 00:00:00 TS 5.23333 164.467 1004 tokyo main 1572 1567 OOO___________ jtwc_wp WP021993 5.30000 163.900 30 -1 5.10000 164.500 2 1004 0 0 0 5.30000 165.000 1 29 1002 4 283
1993064N03174 1993 20 WP MM IRMA 1993-03-10 03:00:00 TS 5.29331 164.302 main 1573 1569 PPP___________ WP021993 5.30000 163.800 30 -1 5.16499 164.393 2 1003 0 0 5.41493 164.713 1 29 1002 3 289
1993064N03174 1993 20 WP MM IRMA 1993-03-10 06:00:00 TS 5.33333 164.167 1002 tokyo main 1569 1560 OOO___________ jtwc_wp WP021993 5.30000 163.700 30 -1 5.20000 164.300 2 1002 0 0 0 5.50000 164.500 1 29 1002 3 274
1993064N03174 1993 20 WP MM IRMA 1993-03-10 09:00:00 TS 5.31499 164.024 main 1560 1556 PPP___________ WP021993 5.30749 163.608 30 -1 5.16499 164.215 2 1002 0 0 5.47249 164.250 1 29 1002 3 257
1993064N03174 1993 20 WP MM IRMA 1993-03-10 12:00:00 TS 5.26667 163.867 1002 tokyo main 1556 1538 OOO___________ jtwc_wp WP021993 5.30000 163.500 30 -1 5.10000 164.100 2 1002 0 0 0 5.40000 164.000 1 29 1002 4 254
1993064N03174 1993 20 WP MM IRMA 1993-03-10 15:00:00 TS 5.21916 163.679 main 1538 1528 PPP___________ WP021993 5.25001 163.350 27 -1 5.05748 163.938 2 1002 0 0 5.34999 163.750 1 29 1002 4 256
1993064N03174 1993 20 WP MM IRMA 1993-03-10 18:00:00 TS 5.16667 163.467 1002 tokyo main 1528 1499 OOO___________ jtwc_wp WP021993 5.20000 163.200 25 -1 5.00000 163.700 2 1002 0 0 0 5.30000 163.500 1 29 1002 5 256
1993064N03174 1993 20 WP MM IRMA 1993-03-10 21:00:00 TS 5.10917 163.231 main 1499 1486 PPP___________ WP021993 5.19999 163.093 25 -1 4.90006 163.335 2 1002 0 0 5.22747 163.265 1 29 1002 5 258
1993064N03174 1993 20 WP MM IRMA 1993-03-11 00:00:00 TS 5.06667 163.000 1002 tokyo main 1486 1473 OOO___________ jtwc_wp WP021993 5.20000 163.000 25 -1 4.80000 163.000 2 1002 0 0 0 5.20000 163.000 1 29 1002 4 267
1993064N03174 1993 20 WP MM IRMA 1993-03-11 03:00:00 TS 5.08417 162.802 main 1473 1460 PPP___________ WP021993 5.17999 162.915 25 -1 4.74997 162.855 2 1001 0 0 5.32254 162.635 1 29 1001 4 270
1993064N03174 1993 20 WP MM IRMA 1993-03-11 06:00:00 TS 5.06667 162.633 1000 tokyo main 1460 1435 OOO___________ jtwc_wp WP021993 5.10000 162.800 25 -1 4.70000 162.800 2 1000 0 0 0 5.40000 162.300 1 29 1000 4 245
1993064N03174 1993 20 WP MM IRMA 1993-03-11 09:00:00 TS 4.92750 162.470 main 1435 1410 PPP___________ WP021993 4.93752 162.577 25 -1 4.60750 162.743 2 1000 0 0 5.23747 162.090 1 29 1000 4 216
1993064N03174 1993 20 WP MM IRMA 1993-03-11 12:00:00 TS 4.73077 162.392 1000 tokyo main 1410 1401 OOOO__________ jtwc_wp WP021993 4.70000 162.400 25 -1 4.50000 162.700 2 1000 0 0 0 5.00000 162.000 1 29 1000 4.70000 162.700 TD 25 995 4 193
1993064N03174 1993 20 WP MM IRMA 1993-03-11 15:00:00 TS 4.55749 162.379 main 1401 1383 PPPP__________ WP021993 4.37748 162.383 25 -1 4.39250 162.650 2 1000 0 0 4.83499 161.998 1 29 1000 4.69251 162.595 TD 27 995 3 175
1993064N03174 1993 20 WP MM IRMA 1993-03-11 18:00:00 TS 4.43333 162.420 1000 tokyo main 1383 1383 OOOO__________ jtwc_wp WP021993 4.10000 162.500 25 -1 4.30000 162.600 2 1000 0 0 0 4.70000 162.100 1 29 1000 4.70000 162.500 TD 30 995 2 142
1993064N03174 1993 20 WP MM IRMA 1993-03-11 21:00:00 TS 4.37876 162.523 main 1390 1390 PPPP__________ WP021993 3.97503 162.810 25 -1 4.22750 162.558 2 1000 0 0 4.57753 162.308 1 29 1000 4.73499 162.415 TD 30 995 2 111
1993064N03174 1993 20 WP MM IRMA 1993-03-12 00:00:00 TS 4.37500 162.575 1000 tokyo main 1396 1390 OOOO__________ jtwc_wp WP021993 4.00000 163.000 25 -1 4.20000 162.500 2 1000 0 0 0 4.50000 162.500 1 29 1000 4.80000 162.300 TD 30 995 1 301
1993064N03174 1993 20 WP MM IRMA 1993-03-12 03:00:00 TS 4.41375 162.467 main 1390 1383 PPPP__________ WP021993 4.16254 162.733 25 -1 4.21248 162.437 2 1000 0 0 4.38749 162.567 1 29 1000 4.89249 162.130 TD 30 995 4 298
1993064N03174 1993 20 WP MM IRMA 1993-03-12 06:00:00 TS 4.55000 162.250 1000 tokyo main 1395 1389 OOOO__________ jtwc_wp WP021993 4.40000 162.300 25 -1 4.30000 162.300 2 1000 0 0 0 4.50000 162.500 1 29 1000 5.00000 161.900 TD 30 995 6 311
1993064N03174 1993 20 WP MM IRMA 1993-03-12 09:00:00 TS 4.82247 162.002 main 1395 1395 PPPP__________ WP021993 4.59998 161.992 27 -1 4.46998 162.052 2 1000 0 0 5.14246 162.325 1 29 1000 5.07747 161.637 TD 32 992 8 315
1993064N03174 1993 20 WP MM IRMA 1993-03-12 12:00:00 TS 5.12500 161.675 1000 tokyo main 1405 1397 OOOO__________ jtwc_wp WP021993 4.80000 161.700 30 -1 4.70000 161.700 2 1000 0 0 0 5.80000 162.000 1 29 1000 5.20000 161.300 TS 35 990 8 303
1993064N03174 1993 20 WP MM IRMA 1993-03-12 15:00:00 TS 5.28620 161.295 main 1398 1377 PPPP__________ WP021993 4.97745 161.422 32 -1 4.88245 161.302 2 1000 0 0 5.89491 161.575 1 29 1000 5.39000 160.880 TS 37 990 9 294
1993064N03174 1993 20 WP MM IRMA 1993-03-12 18:00:00 TS 5.50000 160.825 1000 tokyo main 1378 1369 OOOO__________ jtwc_wp WP021993 5.20000 161.100 35 0 5.20000 160.800 2 1000 0 0 0 5.90000 161.000 1 29 1000 5.70000 160.400 TS 40 990 12 301
1993064N03174 1993 20 WP MM IRMA 1993-03-12 21:00:00 TS 5.90251 160.269 main 1378 1372 PPPP__________ WP021993 5.46738 160.725 37 0 5.79751 160.188 2 1000 0 0 6.19018 160.250 1 29 1000 6.15496 159.915 TS 42 987 15 308
1993064N03174 1993 20 WP MM IRMA 1993-03-13 00:00:00 TS 6.42500 159.650 1000 tokyo main 1383 1376 OOOO__________ jtwc_wp WP021993 5.90000 160.200 40 0 6.50000 159.500 2 1000 0 0 0 6.60000 159.500 1 29 1000 6.70000 159.400 TS 45 985 16 311
1993064N03174 1993 20 WP MM IRMA 1993-03-13 03:00:00 TS 6.98991 159.031 main 1391 1391 PPPP__________ WP021993 6.58262 159.453 42 0 7.12998 158.793 2 1000 0 0 7.00465 159.007 1 29 1000 7.24241 158.872 TS 47 982 17 313
1993064N03174 1993 20 WP MM IRMA 1993-03-13 06:00:00 TS 7.60000 158.375 35 1000 tokyo main 1413 1407 OOOO__________ jtwc_wp WP021993 7.40000 158.600 45 0 7.70000 158.100 3 35 1000 0 9 80 80 0 7.50000 158.500 1 29 1000 7.80000 158.300 STS 50 980 18 312
1993064N03174 1993 20 WP MM IRMA 1993-03-13 09:00:00 TS 8.21250 157.661 main 1431 1426 PPPP__________ WP021993 8.21492 157.785 47 0 8.15734 157.485 3 35 998 0 9 80 80 8.12778 157.708 1 33 997 8.34996 157.665 STS 50 980 19 311
1993064N03174 1993 20 WP MM IRMA 1993-03-13 12:00:00 TS 8.82500 156.950 35 996 tokyo main 1455 1455 OOOO__________ jtwc_wp WP021993 9.00000 157.000 50 0 8.60000 156.900 3 35 996 0 9 80 80 0 8.80000 156.900 2 38 995 8.90000 157.000 STS 50 980 18 312
1993064N03174 1993 20 WP MM IRMA 1993-03-13 15:00:00 TS 9.43106 156.310 main 1482 1482 PPPP__________ WP021993 9.69482 156.270 52 0 9.13494 156.292 3 37 994 0 9 100 100 9.43716 156.320 2 38 995 9.45734 156.357 STS 47 982 17 314
1993064N03174 1993 20 WP MM IRMA 1993-03-13 18:00:00 TS 10.0000 155.700 40 992 tokyo main 1519 1519 OOOO__________ jtwc_wp WP021993 10.3000 155.600 55 0 9.70000 155.700 3 40 992 0 9 120 120 0 10.0000 155.800 2 38 995 10.0000 155.700 TS 45 985 16 312
1993064N03174 1993 20 WP MM IRMA 1993-03-13 21:00:00 TS 10.5174 155.087 main 1550 1550 PPPP__________ WP021993 10.8523 154.985 55 0 10.2723 155.157 3 42 991 0 9 130 130 10.4223 155.222 2 43 993 10.5225 154.985 TS 42 985 16 309
1993064N03174 1993 20 WP MM IRMA 1993-03-14 00:00:00 TS 10.9750 154.475 45 990 tokyo main 1585 1583 OOOO__________ jtwc_wp WP021993 11.3000 154.400 55 0 10.8000 154.600 3 45 990 0 9 140 140 0 10.8000 154.600 3 48 992 11.0000 154.300 TS 40 985 15 305
1993064N03174 1993 20 WP MM IRMA 1993-03-14 03:00:00 TS 11.3963 153.829 main 1612 1612 PPPP__________ WP021993 11.6525 153.785 55 0 11.2375 153.950 3 45 990 0 9 140 140 11.2577 153.870 3 48 991 11.4373 153.712 TS 37 987 15 302
1993064N03174 1993 20 WP MM IRMA 1993-03-14 06:00:00 TS 11.7500 153.225 45 990 tokyo main 1644 1642 OOOO__________ jtwc_wp WP021993 11.9000 153.200 55 0 11.6000 153.300 3 45 990 0 9 140 140 0 11.7000 153.200 3 48 990 11.8000 153.200 TS 35 990 13 301
1993064N03174 1993 20 WP MM IRMA 1993-03-14 09:00:00 TS 12.0367 152.720 main 1659 1659 PPPP__________ WP021993 12.0723 152.685 55 0 11.9224 152.712 3 45 990 0 9 140 140 12.0797 152.747 3 48 990 12.0723 152.735 TS 35 990 11 299
1993064N03174 1993 20 WP MM IRMA 1993-03-14 12:00:00 TS 12.2750 152.275 45 990 tokyo main 1687 1686 OOOO__________ jtwc_wp WP021993 12.2000 152.200 55 0 12.2000 152.200 3 45 990 0 9 140 140 0 12.4000 152.400 3 48 990 12.3000 152.300 TS 35 990 10 299
1993064N03174 1993 20 WP MM IRMA 1993-03-14 15:00:00 TS 12.5055 151.848 main 1705 1705 PPPP__________ WP021993 12.3424 151.692 55 0 12.4573 151.785 3 45 990 0 9 140 140 12.6723 152.065 3 48 990 12.5499 151.850 TS 35 990 9 298
1993064N03174 1993 20 WP MM IRMA 1993-03-14 18:00:00 TS 12.7250 151.425 45 990 tokyo main 1716 1716 OOOO__________ jtwc_wp WP021993 12.5000 151.200 55 0 12.7000 151.400 3 45 990 0 9 140 140 0 12.9000 151.700 3 48 990 12.8000 151.400 TS 35 990 10 297
1993064N03174 1993 20 WP MM IRMA 1993-03-14 21:00:00 TS 12.9501 150.944 main 1735 1732 PPPP__________ WP021993 12.6775 150.720 52 0 12.9576 150.935 3 45 990 0 9 140 140 13.1151 151.200 3 48 990 13.0501 150.920 TS 35 990 10 297
1993064N03174 1993 20 WP MM IRMA 1993-03-15 00:00:00 TS 13.1750 150.500 45 990 tokyo main 1748 1745 OOOO__________ jtwc_wp WP021993 12.9000 150.300 50 0 13.2000 150.500 3 45 990 0 9 140 140 0 13.3000 150.700 3 48 990 13.3000 150.500 TS 35 990 9 299
1993064N03174 1993 20 WP MM IRMA 1993-03-15 03:00:00 TS 13.3756 150.153 main 1763 1761 PPPP__________ WP021993 13.1700 149.948 50 0 13.3849 150.155 3 45 990 0 9 140 140 13.4124 150.305 3 48 990 13.5349 150.205 TS 37 990 7 308
1993064N03174 1993 20 WP MM IRMA 1993-03-15 06:00:00 TS 13.6250 149.900 45 990 tokyo main 1780 1780 OOOO__________ jtwc_wp WP021993 13.5000 149.700 50 0 13.6000 149.900 3 45 990 0 9 140 140 0 13.6000 150.000 3 48 990 13.8000 150.000 TS 40 990 8 324
1993064N03174 1993 20 WP MM IRMA 1993-03-15 09:00:00 TS 13.9843 149.699 main 1821 1821 PPPP__________ WP021993 13.8849 149.547 52 0 13.9200 149.698 3 45 990 0 9 140 140 14.0050 149.748 3 48 990 14.1275 149.805 TS 42 987 8 339
1993064N03174 1993 20 WP MM IRMA 1993-03-15 12:00:00 TS 14.4000 149.600 45 990 tokyo main 1864 1864 OOOO__________ jtwc_wp WP021993 14.3000 149.500 55 0 14.3000 149.600 3 45 990 0 9 140 140 0 14.5000 149.600 3 48 990 14.5000 149.700 TS 45 985 8 353
1993064N03174 1993 20 WP MM IRMA 1993-03-15 15:00:00 TS 14.8125 149.591 main 1908 1908 PPPP__________ WP021993 14.7075 149.520 55 0 14.7000 149.605 3 47 987 0 9 130 130 14.9424 149.540 3 48 990 14.9000 149.697 TS 45 985 8 5
1993064N03174 1993 20 WP MM IRMA 1993-03-15 18:00:00 TS 15.2250 149.675 50 985 tokyo main 1954 1954 OOOO__________ jtwc_wp WP021993 15.1000 149.600 55 0 15.1000 149.700 4 50 985 0 9 120 120 0 15.4000 149.600 3 48 990 15.3000 149.800 TS 45 985 9 14
1993064N03174 1993 20 WP MM IRMA 1993-03-15 21:00:00 TS 15.6312 149.804 main 2000 2000 PPPP__________ WP021993 15.4575 149.678 55 0 15.4650 149.820 4 50 985 0 9 120 120 15.9374 149.740 3 48 990 15.6650 149.977 TS 42 987 8 22
1993064N03174 1993 20 WP MM IRMA 1993-03-16 00:00:00 TS 16.0000 150.000 50 985 tokyo main 2047 2047 OOOO__________ jtwc_wp WP021993 15.8000 149.800 55 0 15.8000 150.000 4 50 985 0 9 120 120 0 16.4000 150.000 3 48 990 16.0000 150.200 TS 40 990 8 33
1993064N03174 1993 20 WP MM IRMA 1993-03-16 03:00:00 TS 16.3157 150.259 main 2085 2085 PPPP__________ WP021993 16.1650 149.985 55 0 16.1301 150.250 4 50 985 0 9 120 120 16.6452 150.400 3 48 990 16.3225 150.400 TS 37 990 8 41
1993064N03174 1993 20 WP MM IRMA 1993-03-16 06:00:00 TS 16.5750 150.525 50 985 tokyo main 2122 2122 OOOO__________ jtwc_wp WP021993 16.5000 150.200 55 0 16.4000 150.500 4 50 985 0 9 120 120 0 16.8000 150.800 3 48 990 16.6000 150.600 TS 35 990 7 43
1993064N03174 1993 20 WP MM IRMA 1993-03-16 09:00:00 TS 16.7918 150.724 main 2147 2147 PPPP__________ WP021993 16.7800 150.400 52 0 16.5724 150.665 4 50 985 0 9 120 120 16.9999 151.030 3 48 990 16.8150 150.800 TS 32 992 5 41
1993064N03174 1993 20 WP MM IRMA 1993-03-16 12:00:00 TS 16.9733 150.893 50 985 tokyo main 2173 2173 OOOO__________ jtwc_wp WP021993 17.0000 150.600 50 0 16.7000 150.800 4 50 985 0 9 120 120 0 17.2000 151.200 3 48 990 17.0000 151.000 TD 30 995 5 43
1993064N03174 1993 20 WP MM IRMA 1993-03-16 15:00:00 TS 17.1572 151.082 main 2199 2199 PPPP__________ WP021993 17.1725 150.800 47 0 16.8500 150.958 4 47 987 0 9 120 120 17.4300 151.430 3 48 990 17.1950 151.200 TD 27 995 5 45
1993064N03174 1993 20 WP MM IRMA 1993-03-16 18:00:00 TS 17.3077 151.246 45 990 tokyo main 2212 2212 OOOO__________ jtwc_wp WP021993 17.3000 151.000 45 0 17.0000 151.100 3 45 990 0 9 120 120 0 17.6000 151.600 3 48 990 17.4000 151.400 TD 25 995 4 46
1993064N03174 1993 20 WP MM IRMA 1993-03-16 21:00:00 TS 17.3983 151.346 main 2225 2225 PPP___________ WP021993 17.4075 151.200 42 0 17.1575 151.208 3 42 992 0 9 115 115 17.6300 151.630 3 43 992 TD 2 48
1993064N03174 1993 20 WP MM IRMA 1993-03-17 00:00:00 TS 17.4667 151.433 40 994 tokyo main 2238 2238 OOO___________ jtwc_wp WP021993 17.5000 151.400 40 0 17.3000 151.300 3 40 994 0 9 110 110 0 17.6000 151.600 2 38 995 2 54
1993064N03174 1993 20 WP MM IRMA 1993-03-17 03:00:00 TS 17.5283 151.531 main 2241 2241 PPP___________ WP021993 17.6075 151.615 37 0 17.4075 151.408 3 37 996 0 9 100 100 17.5700 151.570 2 38 996 2 55
1993064N03174 1993 20 WP MM IRMA 1993-03-17 06:00:00 TS 17.6000 151.636 35 998 tokyo main 2252 2247 OOO___________ jtwc_wp WP021993 17.7000 151.800 35 0 17.5000 151.500 3 35 998 0 9 90 90 0 17.6000 151.600 2 38 998 3 51
1993064N03174 1993 20 WP MM IRMA 1993-03-17 09:00:00 TS 17.6950 151.741 main 2247 2243 PPP___________ WP021993 17.7575 151.915 35 0 17.6000 151.558 3 999 0 9 17.7601 151.760 2 33 999 3 45
1993064N03174 1993 20 WP MM IRMA 1993-03-17 12:00:00 TS 17.7778 151.822 1000 tokyo main 2243 2243 OOO___________ jtwc_wp WP021993 17.8000 152.000 35 0 17.7000 151.600 2 1000 0 0 0 18.0000 152.000 1 29 1000 2 44
1993064N03174 1993 20 WP MM IRMA 1993-03-17 15:00:00 TS 17.8212 151.875 main 2248 2238 PP____________ WP021993 17.8425 152.100 32 -1 17.8000 151.650 2 1002 0 0 1 2 45
1993064N03174 1993 20 WP MM IRMA 1993-03-17 18:00:00 TS 17.9000 151.950 1004 tokyo main 2243 2234 OO____________ jtwc_wp WP021993 17.9000 152.200 30 -1 17.9000 151.700 2 1004 0 0 0 2 37
1993064N03174 1993 20 WP MM IRMA 1993-03-17 21:00:00 TS 18.0000 152.021 main 2234 2224 PP____________ WP021993 18.0000 152.300 30 -1 18.0000 151.743 2 1006 0 0 2 28
1993064N03174 1993 20 WP MM IRMA 1993-03-18 00:00:00 TS 18.1000 152.057 1008 tokyo main 2229 2220 OO____________ jtwc_wp WP021993 18.1000 152.400 30 -1 18.1000 151.800 2 1008 0 0 0 2 16
1993064N03174 1993 20 WP MM IRMA 1993-03-18 03:00:00 TS 18.1825 152.085 main 2220 2210 PP____________ WP021993 18.1625 152.500 27 -1 18.1925 151.878 2 1008 0 0 2 18
1993064N03174 1993 20 WP MM IRMA 1993-03-18 06:00:00 TS 18.2800 152.120 1008 tokyo main 2210 2200 OO____________ jtwc_wp WP021993 18.2000 152.600 25 -1 18.3000 152.000 2 1008 0 0 0 3 23
1993064N03174 1993 20 WP MM IRMA 1993-03-18 09:00:00 TS 18.4350 152.192 main 2206 2192 _P____________ WP021993 -1 18.4350 152.192 2 1009 0 0 4 40
1993064N03174 1993 20 WP MM IRMA 1993-03-18 12:00:00 TS 18.6000 152.400 1010 tokyo main 2197 2183 _O____________ -1 18.6000 152.400 2 1010 0 0 0 5 44
1993064N03174 1993 20 WP MM IRMA 1993-03-18 15:00:00 TS 18.7925 152.558 main 2189 2175 _P____________ -1 18.7925 152.558 2 1010 0 0 5 35
1993064N03174 1993 20 WP MM IRMA 1993-03-18 18:00:00 TS 19.0000 152.700 1010 tokyo main 2175 2161 _O____________ -1 19.0000 152.700 2 1010 0 0 0 5 34
1993064N03174 1993 20 WP MM IRMA 1993-03-18 21:00:00 TS 19.2025 152.847 main 2161 2154 _P____________ -1 19.2025 152.847 2 1011 0 0 5 35
1993064N03174 1993 20 WP MM IRMA 1993-03-19 00:00:00 TS 19.4000 153.000 1012 tokyo main 2154 _O____________ -1 19.4000 153.000 2 1012 0 0 0 5 36

Digital Typhoon Data and Search

About IBTrACS Database

This database is a web-friendly format of International Best Track Archive for Climate Stewardship (IBTrACS), a global best track data archive curated by NOAA dating back to 1842.

Updated: 2021-12-03